Charles City, Virginia
Current Conditions -  °F | °C
As of 7:55 AM on Sunday 23 Nov 2014 (Local Time) from KW96 Reporting Station
Scattered Clouds Scattered Clouds  
Wind Chill: 32°   Ceiling: Unl
Heat Index: 32°   Visibility: 10mi
Dew Point: 27°   Wind: 3mph
Humidity: 83%   Direction: 100°E
Pressure: 30.26"   Gusts: NA
Location:  37.34°N, 77.07°W
Report Text: KW96 231255Z AUTO 10003KT 10SM SCT015 00/M03 A3026 RMK AO1 T00001026
Loading
Personal Weather Stations






























Interactive Weather Map New forecast layout! Learn more

10-Day Weather Forecast

Advertisements
Track Severe Weather on mobile